sensor_id;sensor_type;location;lat;lon;timestamp;P1;durP1;ratioP1;P2;durP2;ratioP2
57337;SDS011;43173;50.980;18.204;2024-03-29T00:00:37;2.40;;;1.40;;
57337;SDS011;43173;50.980;18.204;2024-03-29T00:03:03;1.60;;;1.30;;
57337;SDS011;43173;50.980;18.204;2024-03-29T00:05:29;3.30;;;1.80;;
57337;SDS011;43173;50.980;18.204;2024-03-29T00:07:55;3.80;;;1.80;;
57337;SDS011;43173;50.980;18.204;2024-03-29T00:10:20;3.40;;;1.80;;
57337;SDS011;43173;50.980;18.204;2024-03-29T00:12:46;5.20;;;1.80;;
57337;SDS011;43173;50.980;18.204;2024-03-29T00:15:11;3.00;;;1.90;;
57337;SDS011;43173;50.980;18.204;2024-03-29T00:17:37;2.90;;;1.60;;
57337;SDS011;43173;50.980;18.204;2024-03-29T00:20:02;4.00;;;1.40;;
57337;SDS011;43173;50.980;18.204;2024-03-29T00:22:29;2.80;;;1.70;;
57337;SDS011;43173;50.980;18.204;2024-03-29T00:24:55;3.10;;;1.50;;
57337;SDS011;43173;50.980;18.204;2024-03-29T00:27:20;4.20;;;1.80;;
57337;SDS011;43173;50.980;18.204;2024-03-29T00:29:50;3.10;;;1.60;;
57337;SDS011;43173;50.980;18.204;2024-03-29T00:32:20;3.30;;;1.80;;
57337;SDS011;43173;50.980;18.204;2024-03-29T00:34:48;2.80;;;1.90;;
57337;SDS011;43173;50.980;18.204;2024-03-29T00:37:15;3.80;;;2.10;;
57337;SDS011;43173;50.980;18.204;2024-03-29T00:39:41;2.60;;;1.80;;
57337;SDS011;43173;50.980;18.204;2024-03-29T00:42:07;2.30;;;1.70;;
57337;SDS011;43173;50.980;18.204;2024-03-29T00:44:43;3.60;;;2.10;;
57337;SDS011;43173;50.980;18.204;2024-03-29T00:47:09;2.70;;;1.90;;
57337;SDS011;43173;50.980;18.204;2024-03-29T00:49:35;2.80;;;1.80;;
57337;SDS011;43173;50.980;18.204;2024-03-29T00:52:01;4.40;;;2.30;;
57337;SDS011;43173;50.980;18.204;2024-03-29T00:54:28;3.00;;;2.30;;
57337;SDS011;43173;50.980;18.204;2024-03-29T00:56:54;2.40;;;1.70;;
57337;SDS011;43173;50.980;18.204;2024-03-29T00:59:19;3.20;;;2.10;;
57337;SDS011;43173;50.980;18.204;2024-03-29T01:01:45;3.40;;;2.00;;
57337;SDS011;43173;50.980;18.204;2024-03-29T01:04:11;3.40;;;1.80;;
57337;SDS011;43173;50.980;18.204;2024-03-29T01:06:37;3.80;;;2.60;;
57337;SDS011;43173;50.980;18.204;2024-03-29T01:09:03;3.70;;;2.20;;
57337;SDS011;43173;50.980;18.204;2024-03-29T01:11:30;4.20;;;2.60;;
57337;SDS011;43173;50.980;18.204;2024-03-29T01:13:56;2.80;;;2.10;;
57337;SDS011;43173;50.980;18.204;2024-03-29T01:16:22;3.90;;;2.10;;
57337;SDS011;43173;50.980;18.204;2024-03-29T01:18:49;3.30;;;2.20;;
57337;SDS011;43173;50.980;18.204;2024-03-29T01:21:14;3.40;;;2.10;;
57337;SDS011;43173;50.980;18.204;2024-03-29T01:23:40;9.20;;;4.20;;
57337;SDS011;43173;50.980;18.204;2024-03-29T01:26:06;3.90;;;3.00;;
57337;SDS011;43173;50.980;18.204;2024-03-29T01:28:32;3.30;;;1.90;;
57337;SDS011;43173;50.980;18.204;2024-03-29T01:30:58;4.00;;;2.60;;
57337;SDS011;43173;50.980;18.204;2024-03-29T01:33:24;3.30;;;2.00;;
57337;SDS011;43173;50.980;18.204;2024-03-29T01:35:50;3.10;;;2.40;;
57337;SDS011;43173;50.980;18.204;2024-03-29T01:38:16;4.00;;;2.70;;
57337;SDS011;43173;50.980;18.204;2024-03-29T01:40:41;4.10;;;2.90;;
57337;SDS011;43173;50.980;18.204;2024-03-29T01:43:07;3.40;;;2.80;;
57337;SDS011;43173;50.980;18.204;2024-03-29T01:45:38;3.50;;;2.50;;
57337;SDS011;43173;50.980;18.204;2024-03-29T01:48:06;4.40;;;2.50;;
57337;SDS011;43173;50.980;18.204;2024-03-29T01:50:34;3.80;;;3.10;;
57337;SDS011;43173;50.980;18.204;2024-03-29T01:53:00;5.70;;;2.80;;
57337;SDS011;43173;50.980;18.204;2024-03-29T01:55:25;3.00;;;2.30;;
57337;SDS011;43173;50.980;18.204;2024-03-29T01:57:51;4.10;;;2.70;;
57337;SDS011;43173;50.980;18.204;2024-03-29T02:00:16;4.80;;;2.50;;
57337;SDS011;43173;50.980;18.204;2024-03-29T02:02:42;3.50;;;2.50;;
57337;SDS011;43173;50.980;18.204;2024-03-29T02:05:08;4.20;;;2.90;;
57337;SDS011;43173;50.980;18.204;2024-03-29T02:07:35;2.50;;;1.90;;
57337;SDS011;43173;50.980;18.204;2024-03-29T02:10:01;4.30;;;2.90;;
57337;SDS011;43173;50.980;18.204;2024-03-29T02:12:28;3.60;;;2.70;;
57337;SDS011;43173;50.980;18.204;2024-03-29T02:14:53;3.50;;;2.70;;
57337;SDS011;43173;50.980;18.204;2024-03-29T02:17:19;3.70;;;2.50;;
57337;SDS011;43173;50.980;18.204;2024-03-29T02:19:46;4.70;;;2.70;;
57337;SDS011;43173;50.980;18.204;2024-03-29T02:22:13;3.50;;;2.60;;
57337;SDS011;43173;50.980;18.204;2024-03-29T02:24:40;3.40;;;2.40;;
57337;SDS011;43173;50.980;18.204;2024-03-29T02:27:06;2.10;;;1.80;;
57337;SDS011;43173;50.980;18.204;2024-03-29T02:29:32;3.40;;;2.40;;
57337;SDS011;43173;50.980;18.204;2024-03-29T02:31:57;3.10;;;2.40;;
57337;SDS011;43173;50.980;18.204;2024-03-29T02:34:23;2.90;;;1.90;;
57337;SDS011;43173;50.980;18.204;2024-03-29T02:36:49;3.00;;;2.20;;
57337;SDS011;43173;50.980;18.204;2024-03-29T02:39:15;3.20;;;1.80;;
57337;SDS011;43173;50.980;18.204;2024-03-29T02:41:41;4.60;;;2.50;;
57337;SDS011;43173;50.980;18.204;2024-03-29T02:44:06;3.70;;;2.80;;
57337;SDS011;43173;50.980;18.204;2024-03-29T02:46:32;3.00;;;2.30;;
57337;SDS011;43173;50.980;18.204;2024-03-29T02:48:57;3.20;;;2.20;;
57337;SDS011;43173;50.980;18.204;2024-03-29T02:51:24;3.80;;;2.30;;
57337;SDS011;43173;50.980;18.204;2024-03-29T02:53:50;4.30;;;2.60;;
57337;SDS011;43173;50.980;18.204;2024-03-29T02:56:15;2.60;;;2.30;;
57337;SDS011;43173;50.980;18.204;2024-03-29T02:58:46;3.70;;;2.70;;
57337;SDS011;43173;50.980;18.204;2024-03-29T03:01:11;6.70;;;2.30;;
57337;SDS011;43173;50.980;18.204;2024-03-29T03:03:37;3.70;;;2.40;;
57337;SDS011;43173;50.980;18.204;2024-03-29T03:06:03;3.30;;;2.30;;
57337;SDS011;43173;50.980;18.204;2024-03-29T03:08:29;2.70;;;2.20;;
57337;SDS011;43173;50.980;18.204;2024-03-29T03:11:11;2.80;;;1.70;;
57337;SDS011;43173;50.980;18.204;2024-03-29T03:13:36;3.50;;;2.40;;
57337;SDS011;43173;50.980;18.204;2024-03-29T03:16:01;2.90;;;2.20;;
57337;SDS011;43173;50.980;18.204;2024-03-29T03:18:28;4.00;;;2.30;;
57337;SDS011;43173;50.980;18.204;2024-03-29T03:20:54;3.80;;;2.50;;
57337;SDS011;43173;50.980;18.204;2024-03-29T03:23:20;5.50;;;2.50;;
57337;SDS011;43173;50.980;18.204;2024-03-29T03:28:31;3.90;;;2.60;;
57337;SDS011;43173;50.980;18.204;2024-03-29T03:30:57;3.30;;;2.30;;
57337;SDS011;43173;50.980;18.204;2024-03-29T03:33:22;3.40;;;2.10;;
57337;SDS011;43173;50.980;18.204;2024-03-29T03:35:48;2.80;;;2.00;;
57337;SDS011;43173;50.980;18.204;2024-03-29T03:38:13;3.00;;;1.90;;
57337;SDS011;43173;50.980;18.204;2024-03-29T03:40:39;3.70;;;2.00;;
57337;SDS011;43173;50.980;18.204;2024-03-29T03:43:05;2.10;;;1.80;;
57337;SDS011;43173;50.980;18.204;2024-03-29T03:48:02;2.40;;;1.80;;
57337;SDS011;43173;50.980;18.204;2024-03-29T03:50:35;3.30;;;2.00;;
57337;SDS011;43173;50.980;18.204;2024-03-29T03:53:01;2.70;;;2.00;;
57337;SDS011;43173;50.980;18.204;2024-03-29T03:55:27;2.10;;;1.90;;
57337;SDS011;43173;50.980;18.204;2024-03-29T03:57:53;2.20;;;1.80;;
57337;SDS011;43173;50.980;18.204;2024-03-29T04:00:19;2.70;;;1.80;;
57337;SDS011;43173;50.980;18.204;2024-03-29T04:02:49;2.90;;;1.80;;
57337;SDS011;43173;50.980;18.204;2024-03-29T04:05:16;3.30;;;2.20;;
57337;SDS011;43173;50.980;18.204;2024-03-29T04:07:42;4.60;;;2.50;;
57337;SDS011;43173;50.980;18.204;2024-03-29T04:10:08;7.40;;;3.30;;
57337;SDS011;43173;50.980;18.204;2024-03-29T04:12:34;5.10;;;3.30;;
57337;SDS011;43173;50.980;18.204;2024-03-29T04:14:59;6.10;;;3.20;;
57337;SDS011;43173;50.980;18.204;2024-03-29T04:17:25;6.80;;;3.00;;
57337;SDS011;43173;50.980;18.204;2024-03-29T04:19:51;5.10;;;2.70;;
57337;SDS011;43173;50.980;18.204;2024-03-29T04:22:16;6.00;;;3.20;;
57337;SDS011;43173;50.980;18.204;2024-03-29T04:24:42;8.10;;;3.80;;
57337;SDS011;43173;50.980;18.204;2024-03-29T04:27:07;8.50;;;3.60;;
57337;SDS011;43173;50.980;18.204;2024-03-29T04:29:32;5.20;;;2.50;;
57337;SDS011;43173;50.980;18.204;2024-03-29T04:31:58;5.80;;;2.50;;
57337;SDS011;43173;50.980;18.204;2024-03-29T04:34:24;3.30;;;2.20;;
57337;SDS011;43173;50.980;18.204;2024-03-29T04:36:49;3.10;;;2.10;;
57337;SDS011;43173;50.980;18.204;2024-03-29T04:39:15;2.80;;;2.20;;
57337;SDS011;43173;50.980;18.204;2024-03-29T04:41:40;3.90;;;2.20;;
57337;SDS011;43173;50.980;18.204;2024-03-29T04:44:06;3.00;;;1.80;;
57337;SDS011;43173;50.980;18.204;2024-03-29T04:46:33;3.40;;;2.30;;
57337;SDS011;43173;50.980;18.204;2024-03-29T04:48:58;4.50;;;2.70;;
57337;SDS011;43173;50.980;18.204;2024-03-29T04:51:24;3.60;;;2.60;;
57337;SDS011;43173;50.980;18.204;2024-03-29T04:53:49;2.70;;;2.40;;
57337;SDS011;43173;50.980;18.204;2024-03-29T04:56:15;3.90;;;2.60;;
57337;SDS011;43173;50.980;18.204;2024-03-29T04:58:41;4.30;;;2.70;;
57337;SDS011;43173;50.980;18.204;2024-03-29T05:01:07;6.60;;;4.60;;
57337;SDS011;43173;50.980;18.204;2024-03-29T05:03:32;4.90;;;3.80;;
57337;SDS011;43173;50.980;18.204;2024-03-29T05:05:58;5.50;;;3.80;;
57337;SDS011;43173;50.980;18.204;2024-03-29T05:08:23;3.60;;;3.30;;
57337;SDS011;43173;50.980;18.204;2024-03-29T05:10:49;4.80;;;2.80;;
57337;SDS011;43173;50.980;18.204;2024-03-29T05:13:16;3.80;;;2.50;;
57337;SDS011;43173;50.980;18.204;2024-03-29T05:15:42;2.40;;;2.20;;
57337;SDS011;43173;50.980;18.204;2024-03-29T05:18:08;2.90;;;2.60;;
57337;SDS011;43173;50.980;18.204;2024-03-29T05:20:33;4.80;;;3.60;;
57337;SDS011;43173;50.980;18.204;2024-03-29T05:22:59;6.00;;;4.40;;
57337;SDS011;43173;50.980;18.204;2024-03-29T05:25:26;10.60;;;6.40;;
57337;SDS011;43173;50.980;18.204;2024-03-29T05:27:52;14.60;;;8.70;;
57337;SDS011;43173;50.980;18.204;2024-03-29T05:30:18;26.10;;;14.70;;
57337;SDS011;43173;50.980;18.204;2024-03-29T05:32:44;21.50;;;11.80;;
57337;SDS011;43173;50.980;18.204;2024-03-29T05:35:09;13.80;;;7.30;;
57337;SDS011;43173;50.980;18.204;2024-03-29T05:37:35;9.60;;;4.80;;
57337;SDS011;43173;50.980;18.204;2024-03-29T05:40:02;5.80;;;3.60;;
57337;SDS011;43173;50.980;18.204;2024-03-29T05:42:31;4.40;;;2.70;;
57337;SDS011;43173;50.980;18.204;2024-03-29T05:44:58;4.80;;;1.90;;
57337;SDS011;43173;50.980;18.204;2024-03-29T05:47:24;3.50;;;2.00;;
57337;SDS011;43173;50.980;18.204;2024-03-29T05:49:50;2.40;;;1.80;;
57337;SDS011;43173;50.980;18.204;2024-03-29T05:52:16;10.20;;;4.80;;
57337;SDS011;43173;50.980;18.204;2024-03-29T05:54:42;8.70;;;4.50;;
57337;SDS011;43173;50.980;18.204;2024-03-29T05:57:09;10.10;;;5.70;;
57337;SDS011;43173;50.980;18.204;2024-03-29T05:59:35;6.40;;;4.00;;
57337;SDS011;43173;50.980;18.204;2024-03-29T06:02:01;5.30;;;3.20;;
57337;SDS011;43173;50.980;18.204;2024-03-29T06:04:26;12.00;;;3.80;;
57337;SDS011;43173;50.980;18.204;2024-03-29T06:07:02;11.90;;;4.50;;
57337;SDS011;43173;50.980;18.204;2024-03-29T06:09:28;23.00;;;7.10;;
57337;SDS011;43173;50.980;18.204;2024-03-29T06:11:54;21.10;;;7.30;;
57337;SDS011;43173;50.980;18.204;2024-03-29T06:14:21;18.40;;;6.90;;
57337;SDS011;43173;50.980;18.204;2024-03-29T06:17:05;11.30;;;4.50;;
57337;SDS011;43173;50.980;18.204;2024-03-29T06:19:52;10.00;;;4.40;;
57337;SDS011;43173;50.980;18.204;2024-03-29T06:22:22;12.10;;;3.90;;
57337;SDS011;43173;50.980;18.204;2024-03-29T06:24:54;16.40;;;5.90;;
57337;SDS011;43173;50.980;18.204;2024-03-29T06:27:24;19.40;;;7.20;;
57337;SDS011;43173;50.980;18.204;2024-03-29T06:29:50;22.80;;;8.30;;
57337;SDS011;43173;50.980;18.204;2024-03-29T06:32:16;23.60;;;7.80;;
57337;SDS011;43173;50.980;18.204;2024-03-29T06:34:46;16.10;;;5.00;;
57337;SDS011;43173;50.980;18.204;2024-03-29T06:37:12;42.50;;;9.40;;
57337;SDS011;43173;50.980;18.204;2024-03-29T06:39:37;37.30;;;8.60;;
57337;SDS011;43173;50.980;18.204;2024-03-29T06:42:03;34.10;;;6.80;;
57337;SDS011;43173;50.980;18.204;2024-03-29T06:44:32;21.50;;;4.80;;
57337;SDS011;43173;50.980;18.204;2024-03-29T06:46:58;13.60;;;4.40;;
57337;SDS011;43173;50.980;18.204;2024-03-29T06:49:23;22.30;;;6.40;;
57337;SDS011;43173;50.980;18.204;2024-03-29T06:51:49;29.10;;;9.90;;
57337;SDS011;43173;50.980;18.204;2024-03-29T06:54:14;8.10;;;3.60;;
57337;SDS011;43173;50.980;18.204;2024-03-29T06:56:40;6.80;;;3.50;;
57337;SDS011;43173;50.980;18.204;2024-03-29T06:59:05;7.10;;;2.60;;
57337;SDS011;43173;50.980;18.204;2024-03-29T07:01:31;4.20;;;1.80;;
57337;SDS011;43173;50.980;18.204;2024-03-29T07:03:56;4.60;;;2.00;;
57337;SDS011;43173;50.980;18.204;2024-03-29T07:06:22;8.30;;;2.60;;
57337;SDS011;43173;50.980;18.204;2024-03-29T07:08:48;28.80;;;6.60;;
57337;SDS011;43173;50.980;18.204;2024-03-29T07:11:14;27.20;;;5.80;;
57337;SDS011;43173;50.980;18.204;2024-03-29T07:13:39;73.40;;;13.50;;
57337;SDS011;43173;50.980;18.204;2024-03-29T07:16:05;27.30;;;6.10;;
57337;SDS011;43173;50.980;18.204;2024-03-29T07:18:32;2.20;;;1.50;;
57337;SDS011;43173;50.980;18.204;2024-03-29T07:20:58;4.20;;;2.00;;
57337;SDS011;43173;50.980;18.204;2024-03-29T07:23:24;2.40;;;1.20;;
57337;SDS011;43173;50.980;18.204;2024-03-29T07:28:31;7.70;;;2.50;;
57337;SDS011;43173;50.980;18.204;2024-03-29T07:30:57;5.70;;;2.10;;
57337;SDS011;43173;50.980;18.204;2024-03-29T07:46:39;5.00;;;1.80;;
57337;SDS011;43173;50.980;18.204;2024-03-29T07:49:05;3.80;;;1.50;;
57337;SDS011;43173;50.980;18.204;2024-03-29T07:51:31;12.20;;;3.50;;
57337;SDS011;43173;50.980;18.204;2024-03-29T07:53:57;4.40;;;2.00;;
57337;SDS011;43173;50.980;18.204;2024-03-29T07:56:23;6.90;;;2.30;;
57337;SDS011;43173;50.980;18.204;2024-03-29T07:58:50;8.90;;;3.10;;
57337;SDS011;43173;50.980;18.204;2024-03-29T08:01:19;3.00;;;1.60;;
57337;SDS011;43173;50.980;18.204;2024-03-29T08:03:45;3.10;;;1.60;;
57337;SDS011;43173;50.980;18.204;2024-03-29T08:06:11;2.40;;;1.60;;
57337;SDS011;43173;50.980;18.204;2024-03-29T08:08:37;2.10;;;1.30;;
57337;SDS011;43173;50.980;18.204;2024-03-29T08:11:03;4.80;;;1.90;;
57337;SDS011;43173;50.980;18.204;2024-03-29T08:13:28;3.50;;;1.50;;
57337;SDS011;43173;50.980;18.204;2024-03-29T08:16:01;3.00;;;1.40;;
57337;SDS011;43173;50.980;18.204;2024-03-29T08:18:27;2.00;;;1.40;;
57337;SDS011;43173;50.980;18.204;2024-03-29T08:20:54;14.90;;;3.40;;
57337;SDS011;43173;50.980;18.204;2024-03-29T08:23:24;12.70;;;3.10;;
57337;SDS011;43173;50.980;18.204;2024-03-29T08:25:50;3.40;;;1.20;;
57337;SDS011;43173;50.980;18.204;2024-03-29T08:28:17;1.60;;;1.00;;
57337;SDS011;43173;50.980;18.204;2024-03-29T08:30:44;1.40;;;1.10;;
57337;SDS011;43173;50.980;18.204;2024-03-29T08:33:10;3.60;;;1.50;;
57337;SDS011;43173;50.980;18.204;2024-03-29T08:35:35;4.00;;;1.50;;
57337;SDS011;43173;50.980;18.204;2024-03-29T08:38:01;3.80;;;1.60;;
57337;SDS011;43173;50.980;18.204;2024-03-29T08:40:27;2.90;;;1.20;;
57337;SDS011;43173;50.980;18.204;2024-03-29T08:42:55;1.70;;;1.00;;
57337;SDS011;43173;50.980;18.204;2024-03-29T08:45:23;4.00;;;1.30;;
57337;SDS011;43173;50.980;18.204;2024-03-29T08:47:49;1.70;;;0.90;;
57337;SDS011;43173;50.980;18.204;2024-03-29T08:50:15;2.80;;;1.00;;
57337;SDS011;43173;50.980;18.204;2024-03-29T08:52:41;3.30;;;0.90;;
57337;SDS011;43173;50.980;18.204;2024-03-29T08:55:06;3.20;;;1.10;;
57337;SDS011;43173;50.980;18.204;2024-03-29T08:57:33;2.70;;;1.10;;
57337;SDS011;43173;50.980;18.204;2024-03-29T08:59:59;3.90;;;1.10;;
57337;SDS011;43173;50.980;18.204;2024-03-29T09:02:25;3.20;;;1.10;;
57337;SDS011;43173;50.980;18.204;2024-03-29T09:04:50;2.60;;;1.00;;
57337;SDS011;43173;50.980;18.204;2024-03-29T09:07:16;3.50;;;0.90;;
57337;SDS011;43173;50.980;18.204;2024-03-29T09:09:41;1.70;;;0.80;;
57337;SDS011;43173;50.980;18.204;2024-03-29T09:12:07;1.00;;;0.90;;
57337;SDS011;43173;50.980;18.204;2024-03-29T09:14:33;5.60;;;1.80;;
57337;SDS011;43173;50.980;18.204;2024-03-29T09:16:59;3.60;;;1.20;;
57337;SDS011;43173;50.980;18.204;2024-03-29T09:19:25;3.60;;;1.20;;
57337;SDS011;43173;50.980;18.204;2024-03-29T09:21:50;3.90;;;0.70;;
57337;SDS011;43173;50.980;18.204;2024-03-29T09:24:16;2.00;;;0.70;;
57337;SDS011;43173;50.980;18.204;2024-03-29T09:26:51;1.70;;;0.90;;
57337;SDS011;43173;50.980;18.204;2024-03-29T09:29:16;1.60;;;0.70;;
57337;SDS011;43173;50.980;18.204;2024-03-29T09:31:44;1.20;;;0.80;;
57337;SDS011;43173;50.980;18.204;2024-03-29T09:34:09;1.30;;;0.40;;
57337;SDS011;43173;50.980;18.204;2024-03-29T09:36:35;1.90;;;0.60;;
57337;SDS011;43173;50.980;18.204;2024-03-29T09:39:00;2.00;;;0.80;;
57337;SDS011;43173;50.980;18.204;2024-03-29T09:41:26;1.60;;;0.70;;
57337;SDS011;43173;50.980;18.204;2024-03-29T09:43:53;3.10;;;0.80;;
57337;SDS011;43173;50.980;18.204;2024-03-29T09:46:20;1.10;;;0.60;;
57337;SDS011;43173;50.980;18.204;2024-03-29T09:48:46;1.70;;;0.50;;
57337;SDS011;43173;50.980;18.204;2024-03-29T09:51:13;0.30;;;0.30;;
57337;SDS011;43173;50.980;18.204;2024-03-29T09:53:41;1.60;;;0.60;;
57337;SDS011;43173;50.980;18.204;2024-03-29T09:56:08;1.70;;;0.60;;
57337;SDS011;43173;50.980;18.204;2024-03-29T09:58:35;2.70;;;0.80;;
57337;SDS011;43173;50.980;18.204;2024-03-29T10:01:05;5.40;;;0.80;;
57337;SDS011;43173;50.980;18.204;2024-03-29T10:03:33;1.70;;;0.70;;
57337;SDS011;43173;50.980;18.204;2024-03-29T10:06:02;1.80;;;0.50;;
57337;SDS011;43173;50.980;18.204;2024-03-29T10:08:28;1.20;;;0.60;;
57337;SDS011;43173;50.980;18.204;2024-03-29T10:10:56;3.20;;;1.00;;
57337;SDS011;43173;50.980;18.204;2024-03-29T10:13:22;3.70;;;0.90;;
57337;SDS011;43173;50.980;18.204;2024-03-29T10:15:51;1.70;;;0.80;;
57337;SDS011;43173;50.980;18.204;2024-03-29T10:18:22;0.80;;;0.50;;
57337;SDS011;43173;50.980;18.204;2024-03-29T10:23:32;1.10;;;0.40;;
57337;SDS011;43173;50.980;18.204;2024-03-29T10:26:00;0.70;;;0.30;;
57337;SDS011;43173;50.980;18.204;2024-03-29T10:28:33;1.60;;;0.40;;
57337;SDS011;43173;50.980;18.204;2024-03-29T10:31:00;1.80;;;0.40;;
57337;SDS011;43173;50.980;18.204;2024-03-29T10:33:30;1.60;;;0.40;;
57337;SDS011;43173;50.980;18.204;2024-03-29T10:35:59;2.50;;;0.60;;
57337;SDS011;43173;50.980;18.204;2024-03-29T10:38:26;0.70;;;0.40;;
57337;SDS011;43173;50.980;18.204;2024-03-29T10:40:52;1.30;;;0.50;;
57337;SDS011;43173;50.980;18.204;2024-03-29T10:43:19;0.70;;;0.40;;
57337;SDS011;43173;50.980;18.204;2024-03-29T10:45:46;0.60;;;0.30;;
57337;SDS011;43173;50.980;18.204;2024-03-29T10:48:14;1.60;;;0.50;;
57337;SDS011;43173;50.980;18.204;2024-03-29T10:50:41;2.80;;;0.70;;
57337;SDS011;43173;50.980;18.204;2024-03-29T10:53:08;1.40;;;0.40;;
57337;SDS011;43173;50.980;18.204;2024-03-29T10:55:35;0.80;;;0.30;;
57337;SDS011;43173;50.980;18.204;2024-03-29T10:58:01;1.00;;;0.50;;
57337;SDS011;43173;50.980;18.204;2024-03-29T11:00:32;2.70;;;0.50;;
57337;SDS011;43173;50.980;18.204;2024-03-29T11:05:50;1.40;;;0.50;;
57337;SDS011;43173;50.980;18.204;2024-03-29T11:08:21;1.00;;;0.50;;
57337;SDS011;43173;50.980;18.204;2024-03-29T11:10:51;1.20;;;0.30;;
57337;SDS011;43173;50.980;18.204;2024-03-29T11:16:04;1.00;;;0.50;;
57337;SDS011;43173;50.980;18.204;2024-03-29T11:18:29;1.80;;;0.70;;
57337;SDS011;43173;50.980;18.204;2024-03-29T11:20:56;2.10;;;0.80;;
57337;SDS011;43173;50.980;18.204;2024-03-29T11:23:24;1.40;;;0.70;;
57337;SDS011;43173;50.980;18.204;2024-03-29T11:25:52;4.00;;;1.20;;
57337;SDS011;43173;50.980;18.204;2024-03-29T11:28:34;11.00;;;2.50;;
57337;SDS011;43173;50.980;18.204;2024-03-29T11:31:01;5.80;;;1.30;;
57337;SDS011;43173;50.980;18.204;2024-03-29T11:35:59;0.90;;;0.50;;
57337;SDS011;43173;50.980;18.204;2024-03-29T11:38:30;1.40;;;0.60;;
57337;SDS011;43173;50.980;18.204;2024-03-29T11:43:37;4.60;;;1.60;;
57337;SDS011;43173;50.980;18.204;2024-03-29T11:46:07;3.50;;;1.50;;
57337;SDS011;43173;50.980;18.204;2024-03-29T11:48:34;2.00;;;0.70;;
57337;SDS011;43173;50.980;18.204;2024-03-29T11:51:01;1.30;;;0.50;;
57337;SDS011;43173;50.980;18.204;2024-03-29T11:53:28;1.60;;;0.60;;
57337;SDS011;43173;50.980;18.204;2024-03-29T11:55:56;1.60;;;0.60;;
57337;SDS011;43173;50.980;18.204;2024-03-29T11:58:23;3.40;;;0.50;;
57337;SDS011;43173;50.980;18.204;2024-03-29T12:00:50;1.60;;;0.70;;
57337;SDS011;43173;50.980;18.204;2024-03-29T12:03:17;0.60;;;0.40;;
57337;SDS011;43173;50.980;18.204;2024-03-29T12:05:43;1.70;;;0.40;;
57337;SDS011;43173;50.980;18.204;2024-03-29T12:21:39;3.20;;;0.50;;
57337;SDS011;43173;50.980;18.204;2024-03-29T12:24:05;1.20;;;0.50;;
57337;SDS011;43173;50.980;18.204;2024-03-29T12:26:31;1.30;;;0.50;;
57337;SDS011;43173;50.980;18.204;2024-03-29T12:28:58;0.80;;;0.40;;
57337;SDS011;43173;50.980;18.204;2024-03-29T12:31:25;2.00;;;0.50;;
57337;SDS011;43173;50.980;18.204;2024-03-29T12:33:51;2.80;;;0.80;;
57337;SDS011;43173;50.980;18.204;2024-03-29T12:36:18;3.90;;;2.10;;
57337;SDS011;43173;50.980;18.204;2024-03-29T12:38:48;7.40;;;4.30;;
57337;SDS011;43173;50.980;18.204;2024-03-29T12:41:17;3.80;;;2.30;;
57337;SDS011;43173;50.980;18.204;2024-03-29T12:43:43;3.20;;;1.80;;
57337;SDS011;43173;50.980;18.204;2024-03-29T12:46:10;1.40;;;0.80;;
57337;SDS011;43173;50.980;18.204;2024-03-29T12:48:36;1.50;;;0.40;;
57337;SDS011;43173;50.980;18.204;2024-03-29T12:51:01;1.20;;;0.60;;
57337;SDS011;43173;50.980;18.204;2024-03-29T12:53:27;1.20;;;0.50;;
57337;SDS011;43173;50.980;18.204;2024-03-29T12:55:53;1.50;;;0.60;;
57337;SDS011;43173;50.980;18.204;2024-03-29T12:58:19;1.80;;;0.50;;
57337;SDS011;43173;50.980;18.204;2024-03-29T13:00:47;1.60;;;0.40;;
57337;SDS011;43173;50.980;18.204;2024-03-29T13:03:13;2.10;;;0.60;;
57337;SDS011;43173;50.980;18.204;2024-03-29T13:05:39;0.70;;;0.30;;
57337;SDS011;43173;50.980;18.204;2024-03-29T13:08:13;2.00;;;0.50;;
57337;SDS011;43173;50.980;18.204;2024-03-29T13:10:42;0.80;;;0.30;;
57337;SDS011;43173;50.980;18.204;2024-03-29T13:13:09;1.30;;;0.50;;
57337;SDS011;43173;50.980;18.204;2024-03-29T13:15:38;3.10;;;0.50;;
57337;SDS011;43173;50.980;18.204;2024-03-29T13:18:04;0.40;;;0.40;;
57337;SDS011;43173;50.980;18.204;2024-03-29T13:20:31;0.90;;;0.50;;
57337;SDS011;43173;50.980;18.204;2024-03-29T13:22:59;0.50;;;0.40;;
57337;SDS011;43173;50.980;18.204;2024-03-29T13:25:25;2.30;;;0.50;;
57337;SDS011;43173;50.980;18.204;2024-03-29T13:27:52;1.90;;;0.50;;
57337;SDS011;43173;50.980;18.204;2024-03-29T13:30:22;1.10;;;0.40;;
57337;SDS011;43173;50.980;18.204;2024-03-29T13:32:49;0.90;;;0.40;;
57337;SDS011;43173;50.980;18.204;2024-03-29T13:35:15;1.10;;;0.40;;
57337;SDS011;43173;50.980;18.204;2024-03-29T13:37:44;3.30;;;0.40;;
57337;SDS011;43173;50.980;18.204;2024-03-29T13:40:19;1.80;;;0.60;;
57337;SDS011;43173;50.980;18.204;2024-03-29T13:42:45;1.50;;;0.40;;
57337;SDS011;43173;50.980;18.204;2024-03-29T13:45:11;0.90;;;0.50;;
57337;SDS011;43173;50.980;18.204;2024-03-29T13:47:37;0.80;;;0.70;;
57337;SDS011;43173;50.980;18.204;2024-03-29T13:50:06;2.00;;;0.60;;
57337;SDS011;43173;50.980;18.204;2024-03-29T13:52:33;1.20;;;0.40;;
57337;SDS011;43173;50.980;18.204;2024-03-29T13:55:00;2.20;;;0.50;;
57337;SDS011;43173;50.980;18.204;2024-03-29T13:57:26;1.70;;;0.50;;
57337;SDS011;43173;50.980;18.204;2024-03-29T13:59:52;1.00;;;0.50;;
57337;SDS011;43173;50.980;18.204;2024-03-29T14:02:18;1.70;;;0.80;;
57337;SDS011;43173;50.980;18.204;2024-03-29T14:04:44;1.80;;;0.60;;
57337;SDS011;43173;50.980;18.204;2024-03-29T14:07:12;1.50;;;0.70;;
57337;SDS011;43173;50.980;18.204;2024-03-29T14:09:42;1.80;;;0.80;;
57337;SDS011;43173;50.980;18.204;2024-03-29T14:12:08;1.90;;;0.90;;
57337;SDS011;43173;50.980;18.204;2024-03-29T14:14:34;3.50;;;1.80;;
57337;SDS011;43173;50.980;18.204;2024-03-29T14:17:00;2.90;;;1.90;;
57337;SDS011;43173;50.980;18.204;2024-03-29T14:19:34;3.20;;;1.60;;
57337;SDS011;43173;50.980;18.204;2024-03-29T14:22:00;3.80;;;1.00;;
57337;SDS011;43173;50.980;18.204;2024-03-29T14:24:27;2.00;;;0.70;;
57337;SDS011;43173;50.980;18.204;2024-03-29T14:26:53;4.20;;;0.70;;
57337;SDS011;43173;50.980;18.204;2024-03-29T14:29:19;2.60;;;1.20;;
57337;SDS011;43173;50.980;18.204;2024-03-29T14:31:51;5.70;;;2.60;;
57337;SDS011;43173;50.980;18.204;2024-03-29T14:34:18;5.10;;;2.20;;
57337;SDS011;43173;50.980;18.204;2024-03-29T14:36:45;4.00;;;1.20;;
57337;SDS011;43173;50.980;18.204;2024-03-29T14:39:10;6.20;;;2.80;;
57337;SDS011;43173;50.980;18.204;2024-03-29T14:41:39;2.70;;;1.60;;
57337;SDS011;43173;50.980;18.204;2024-03-29T14:44:08;4.40;;;2.20;;
57337;SDS011;43173;50.980;18.204;2024-03-29T14:46:35;3.30;;;1.60;;
57337;SDS011;43173;50.980;18.204;2024-03-29T14:49:04;2.20;;;1.10;;
57337;SDS011;43173;50.980;18.204;2024-03-29T14:51:36;2.60;;;1.00;;
57337;SDS011;43173;50.980;18.204;2024-03-29T14:54:02;2.20;;;1.00;;
57337;SDS011;43173;50.980;18.204;2024-03-29T14:56:31;5.40;;;1.00;;
57337;SDS011;43173;50.980;18.204;2024-03-29T14:59:05;2.30;;;1.00;;
57337;SDS011;43173;50.980;18.204;2024-03-29T15:01:31;2.30;;;1.30;;
57337;SDS011;43173;50.980;18.204;2024-03-29T15:03:58;4.00;;;1.80;;
57337;SDS011;43173;50.980;18.204;2024-03-29T15:06:24;1.80;;;0.90;;
57337;SDS011;43173;50.980;18.204;2024-03-29T15:08:53;3.10;;;1.70;;
57337;SDS011;43173;50.980;18.204;2024-03-29T15:11:20;2.10;;;0.90;;
57337;SDS011;43173;50.980;18.204;2024-03-29T15:13:47;2.60;;;0.80;;
57337;SDS011;43173;50.980;18.204;2024-03-29T15:16:12;1.90;;;0.80;;
57337;SDS011;43173;50.980;18.204;2024-03-29T15:18:37;4.20;;;1.00;;